Pajares, Spain
Current Conditions -  °F | °C
As of 6:30 AM on Wednesday 22 Oct 2014 (Local Time) from LEAS Reporting Station
Broken Clouds Broken Clouds  
Wind Chill: 59°   Ceiling: 3500
Heat Index: 59°   Visibility: 4mi
Dew Point: 57°   Wind: 2mph
Humidity: 94%   Direction: NA
Pressure: 30.45"   Gusts: NA
Location:  43.57°N, 5.69°W
Report Text: LEAS 220430Z VRB02KT 6000 FEW018 SCT020 BKN035 15/14 Q1031 NOSIG
Loading
Personal Weather Stations






























Interactive Weather Map
Tropical Storm Tracking
New forecast layout! Learn more

10-Day Weather Forecast

Advertisements
Track Severe Weather on mobile